createdAt,value
2019-02-12T00:00:22.980Z,8.50
2019-02-12T00:02:51.488Z,8.37
2019-02-12T00:05:19.909Z,8.43
2019-02-12T00:07:48.362Z,7.90
2019-02-12T00:10:16.782Z,8.60
2019-02-12T00:12:47.093Z,9.13
2019-02-12T00:15:15.520Z,8.70
2019-02-12T00:17:48.043Z,10.03
2019-02-12T00:20:19.475Z,9.50
2019-02-12T00:22:51.524Z,8.70
2019-02-12T00:25:19.932Z,8.83
2019-02-12T00:27:48.372Z,10.80
2019-02-12T00:30:16.777Z,9.50
2019-02-12T00:32:45.220Z,9.23
2019-02-12T00:35:13.643Z,8.63
2019-02-12T00:37:42.091Z,9.77
2019-02-12T00:40:10.565Z,9.57
2019-02-12T00:42:39.007Z,9.43
2019-02-12T00:45:10.741Z,8.90
2019-02-12T00:47:39.194Z,10.87
2019-02-12T00:50:14.054Z,10.00
2019-02-12T00:52:45.269Z,9.07
2019-02-12T00:55:13.700Z,9.40
2019-02-12T00:57:42.145Z,10.70
2019-02-12T01:00:13.774Z,10.67
2019-02-12T01:02:42.255Z,10.63
2019-02-12T01:05:11.001Z,9.77
2019-02-12T01:07:39.445Z,10.93
2019-02-12T01:10:10.517Z,10.77
2019-02-12T01:12:38.937Z,10.53
2019-02-12T01:15:11.491Z,9.17
2019-02-12T01:17:41.781Z,10.83
2019-02-12T01:20:13.718Z,11.80
2019-02-12T01:22:42.293Z,10.80
2019-02-12T01:25:10.905Z,11.37
2019-02-12T01:27:39.332Z,10.80
2019-02-12T01:30:10.985Z,10.40
2019-02-12T01:32:39.639Z,10.07
2019-02-12T01:35:08.086Z,26.30
2019-02-12T01:37:36.521Z,12.57
2019-02-12T01:40:08.381Z,11.20
2019-02-12T01:42:40.676Z,12.83
2019-02-12T01:45:10.768Z,12.50
2019-02-12T01:47:40.309Z,13.10
2019-02-12T01:50:10.984Z,12.03
2019-02-12T01:52:39.425Z,12.43
2019-02-12T01:55:12.408Z,12.77
2019-02-12T01:57:40.939Z,12.50
2019-02-12T02:00:12.267Z,12.83
2019-02-12T02:02:40.751Z,13.20
2019-02-12T02:05:14.447Z,13.57
2019-02-12T02:07:42.875Z,13.27
2019-02-12T02:10:16.781Z,12.77
2019-02-12T02:12:45.212Z,12.77
2019-02-12T02:15:14.279Z,12.20
2019-02-12T02:17:42.707Z,11.97
2019-02-12T02:20:13.404Z,12.27
2019-02-12T02:22:43.922Z,13.03
2019-02-12T02:25:15.016Z,13.03
2019-02-12T02:27:43.448Z,12.63
2019-02-12T02:30:16.201Z,13.33
2019-02-12T02:32:46.684Z,12.60
2019-02-12T02:35:15.793Z,25.20
2019-02-12T02:37:49.213Z,17.60
2019-02-12T02:40:21.868Z,16.20
2019-02-12T02:42:50.343Z,12.43
2019-02-12T02:45:18.859Z,11.17
2019-02-12T02:47:47.415Z,12.97
2019-02-12T02:50:15.840Z,13.83
2019-02-12T02:52:44.333Z,13.33
2019-02-12T02:55:16.003Z,11.93
2019-02-12T02:57:44.440Z,11.97
2019-02-12T03:00:16.593Z,11.80
2019-02-12T03:02:45.022Z,14.43
2019-02-12T03:05:15.211Z,12.93
2019-02-12T03:07:43.660Z,14.97
2019-02-12T03:10:12.220Z,14.93
2019-02-12T03:12:40.664Z,16.33
2019-02-12T03:15:11.076Z,16.77
2019-02-12T03:17:41.884Z,13.13
2019-02-12T03:20:11.768Z,14.17
2019-02-12T03:22:40.219Z,14.47
2019-02-12T03:25:10.095Z,15.47
2019-02-12T03:27:38.669Z,14.53
2019-02-12T03:30:13.105Z,14.30
2019-02-12T03:32:41.709Z,13.77
2019-02-12T03:35:10.999Z,14.80
2019-02-12T03:37:39.495Z,13.67
2019-02-12T03:40:12.993Z,12.80
2019-02-12T03:42:41.454Z,14.03
2019-02-12T03:45:14.036Z,14.47
2019-02-12T03:47:43.744Z,14.50
2019-02-12T03:50:12.554Z,14.90
2019-02-12T03:52:43.432Z,13.10
2019-02-12T03:55:13.127Z,13.20
2019-02-12T03:57:42.915Z,14.47
2019-02-12T04:00:14.092Z,14.40
2019-02-12T04:03:02.017Z,15.83
2019-02-12T04:05:30.501Z,12.60
2019-02-12T04:08:04.535Z,13.20
2019-02-12T04:10:36.031Z,12.87
2019-02-12T04:13:06.162Z,12.63
2019-02-12T04:15:34.855Z,11.97
2019-02-12T04:18:03.285Z,12.30
2019-02-12T04:20:31.696Z,11.83
2019-02-12T04:23:00.143Z,12.23
2019-02-12T04:25:28.582Z,12.30
2019-02-12T04:27:58.118Z,13.93
2019-02-12T04:30:30.205Z,13.77
2019-02-12T04:32:58.707Z,12.87
2019-02-12T04:35:27.116Z,12.70
2019-02-12T04:37:55.564Z,13.83
2019-02-12T04:40:23.994Z,11.83
2019-02-12T04:42:52.458Z,13.70
2019-02-12T04:45:24.797Z,13.17
2019-02-12T04:47:53.263Z,13.93
2019-02-12T04:50:22.205Z,14.90
2019-02-12T04:52:56.263Z,13.47
2019-02-12T04:55:24.675Z,13.97
2019-02-12T04:57:58.705Z,14.47
2019-02-12T05:00:27.124Z,13.67
2019-02-12T05:02:55.558Z,12.77
2019-02-12T05:05:23.990Z,13.93
2019-02-12T05:08:01.899Z,12.83
2019-02-12T05:10:45.154Z,13.20
2019-02-12T05:13:13.609Z,13.53
2019-02-12T05:15:46.693Z,12.47
2019-02-12T05:18:15.136Z,12.37
2019-02-12T05:20:43.968Z,12.30
2019-02-12T05:23:12.550Z,12.67
2019-02-12T05:25:43.998Z,14.13
2019-02-12T05:28:12.416Z,14.00
2019-02-12T05:30:40.850Z,11.90
2019-02-12T05:33:22.105Z,15.50
2019-02-12T05:35:52.545Z,14.40
2019-02-12T05:38:23.077Z,12.97
2019-02-12T05:40:51.506Z,12.27
2019-02-12T05:43:19.946Z,12.00
2019-02-12T05:45:48.381Z,12.73
2019-02-12T05:48:17.059Z,12.30
2019-02-12T05:50:45.579Z,12.73
2019-02-12T05:53:14.015Z,12.03
2019-02-12T05:55:43.364Z,11.57
2019-02-12T05:58:14.943Z,11.43
2019-02-12T06:00:43.384Z,12.13
2019-02-12T06:03:11.810Z,12.17
2019-02-12T06:05:40.268Z,12.77
2019-02-12T06:08:08.695Z,12.20
2019-02-12T06:10:37.137Z,11.90
2019-02-12T06:13:08.792Z,11.90
2019-02-12T06:15:37.227Z,12.17
2019-02-12T06:18:05.684Z,12.80
2019-02-12T06:20:35.056Z,12.67
2019-02-12T06:23:04.317Z,13.43
2019-02-12T06:25:32.891Z,13.60
2019-02-12T06:28:01.329Z,13.00
2019-02-12T06:30:32.754Z,19.10
2019-02-12T06:33:07.290Z,20.37
2019-02-12T06:35:31.356Z,22.07
2019-02-12T06:38:02.532Z,36.70
2019-02-12T06:40:30.983Z,32.77
2019-02-12T06:42:59.405Z,29.80
2019-02-12T06:45:27.860Z,29.70
2019-02-12T06:47:56.308Z,29.47
2019-02-12T06:50:25.019Z,28.40
2019-02-12T06:52:54.362Z,51.67
2019-02-12T06:55:25.198Z,38.07
2019-02-12T06:58:11.921Z,33.63
2019-02-12T07:03:42.668Z,28.47
2019-02-12T07:06:19.732Z,26.73
2019-02-12T07:09:26.017Z,26.80
2019-02-12T07:15:11.540Z,19.33
2019-02-12T07:18:14.679Z,21.83
2019-02-12T07:21:03.940Z,19.70
2019-02-12T07:23:53.000Z,20.43
2019-02-12T07:26:33.662Z,18.87
2019-02-12T07:29:10.719Z,18.30
2019-02-12T07:32:01.356Z,18.67
2019-02-12T07:34:58.152Z,23.37
2019-02-12T07:37:56.552Z,23.63
2019-02-12T07:40:42.864Z,25.80
2019-02-12T07:43:23.429Z,20.37
2019-02-12T07:45:54.948Z,18.43
2019-02-12T07:48:28.696Z,18.27
2019-02-12T07:51:09.983Z,17.53
2019-02-12T07:53:42.355Z,15.83
2019-02-12T07:56:29.126Z,18.43
2019-02-12T07:59:10.192Z,18.07
2019-02-12T08:02:02.617Z,19.37
2019-02-12T08:04:34.788Z,20.67
2019-02-12T08:07:09.176Z,20.17
2019-02-12T08:10:15.431Z,18.43
2019-02-12T08:12:47.033Z,18.00
2019-02-12T08:15:35.546Z,16.73
2019-02-12T08:18:07.655Z,17.00
2019-02-12T08:20:58.427Z,14.77
2019-02-12T08:23:57.191Z,15.50
2019-02-12T08:26:34.152Z,14.97
2019-02-12T08:29:26.388Z,17.70
2019-02-12T08:31:57.917Z,21.10
2019-02-12T08:34:50.380Z,19.33
2019-02-12T08:37:36.669Z,19.27
2019-02-12T08:40:29.871Z,18.00
2019-02-12T08:43:06.990Z,19.20
2019-02-12T08:45:51.070Z,18.70
2019-02-12T08:48:31.374Z,17.00
2019-02-12T08:51:08.653Z,17.43
2019-02-12T08:54:14.829Z,18.87
2019-02-12T08:57:01.157Z,19.67
2019-02-12T08:59:38.818Z,19.23
2019-02-12T09:02:28.303Z,18.23
2019-02-12T09:05:04.125Z,18.53
2019-02-12T09:07:41.278Z,19.53
2019-02-12T09:10:19.421Z,18.23
2019-02-12T09:12:56.921Z,18.17
2019-02-12T09:15:48.110Z,18.90
2019-02-12T09:18:19.911Z,18.50
2019-02-12T09:21:16.634Z,17.57
2019-02-12T09:24:00.177Z,17.47
2019-02-12T09:26:52.152Z,17.70
2019-02-12T09:29:26.190Z,15.93
2019-02-12T09:32:15.426Z,15.47
2019-02-12T09:34:55.344Z,18.40
2019-02-12T09:37:50.854Z,13.77
2019-02-12T09:40:25.099Z,12.10
2019-02-12T09:43:13.018Z,12.10
2019-02-12T09:46:04.733Z,10.43
2019-02-12T09:48:36.444Z,9.93
2019-02-12T09:51:31.681Z,10.83
2019-02-12T09:54:08.892Z,11.13
2019-02-12T09:56:57.826Z,10.33
2019-02-12T09:59:34.954Z,9.43
2019-02-12T10:02:11.900Z,10.00
2019-02-12T10:04:59.692Z,10.20
2019-02-12T10:07:39.994Z,9.07
2019-02-12T10:10:26.370Z,10.10
2019-02-12T10:13:03.566Z,9.07
2019-02-12T10:15:37.957Z,9.27
2019-02-12T10:18:09.475Z,9.60
2019-02-12T10:20:58.876Z,8.87
2019-02-12T10:23:36.129Z,8.60
2019-02-12T10:26:09.910Z,8.20
2019-02-12T10:29:05.135Z,9.03
2019-02-12T10:31:43.476Z,9.00
2019-02-12T10:34:14.173Z,6.00
2019-02-12T10:36:42.247Z,7.53
2019-02-12T10:39:13.599Z,7.93
2019-02-12T10:41:42.018Z,7.53
2019-02-12T10:44:10.440Z,6.90
2019-02-12T10:46:39.635Z,6.30
2019-02-12T10:49:08.074Z,6.17
2019-02-12T10:51:36.499Z,6.87
2019-02-12T10:54:04.928Z,5.20
2019-02-12T10:56:33.429Z,7.47
2019-02-12T10:59:01.878Z,4.97
2019-02-12T11:01:30.288Z,5.13
2019-02-12T11:03:58.723Z,4.40
2019-02-12T11:06:27.146Z,4.07
2019-02-12T11:08:55.580Z,5.33
2019-02-12T11:11:24.649Z,4.73
2019-02-12T11:13:53.068Z,4.03
2019-02-12T11:16:26.059Z,4.27
2019-02-12T11:18:54.507Z,4.07
2019-02-12T11:21:22.920Z,3.60
2019-02-12T11:23:56.046Z,4.43
2019-02-12T11:26:24.604Z,4.10
2019-02-12T11:28:57.070Z,2.93
2019-02-12T11:31:25.632Z,3.60
2019-02-12T11:33:54.047Z,3.30
2019-02-12T11:36:22.512Z,3.83
2019-02-12T11:38:51.796Z,3.47
2019-02-12T11:41:22.996Z,3.80
2019-02-12T11:43:51.718Z,3.50
2019-02-12T11:46:20.224Z,3.57
2019-02-12T11:48:49.988Z,3.17
2019-02-12T11:51:18.404Z,3.53
2019-02-12T11:53:46.819Z,3.50
2019-02-12T11:56:16.203Z,4.37
2019-02-12T11:58:45.275Z,3.20
2019-02-12T12:01:14.492Z,3.67
2019-02-12T12:03:42.936Z,2.80
2019-02-12T12:06:11.370Z,3.40
2019-02-12T12:08:40.023Z,3.37
2019-02-12T12:11:08.453Z,2.83
2019-02-12T12:13:37.756Z,3.87
2019-02-12T12:16:09.018Z,3.23
2019-02-12T12:18:37.608Z,2.97
2019-02-12T12:21:06.033Z,2.70
2019-02-12T12:23:34.452Z,2.80
2019-02-12T12:26:02.888Z,2.93
2019-02-12T12:28:31.693Z,3.67
2019-02-12T12:31:00.394Z,3.60
2019-02-12T12:33:28.814Z,4.83
2019-02-12T12:36:00.228Z,3.30
2019-02-12T12:38:30.671Z,3.70
2019-02-12T12:40:59.672Z,4.37
2019-02-12T12:43:29.781Z,4.13
2019-02-12T12:45:58.628Z,3.70
2019-02-12T12:48:28.116Z,3.77
2019-02-12T12:50:56.525Z,4.23
2019-02-12T12:53:27.018Z,4.13
2019-02-12T12:55:55.456Z,4.30
2019-02-12T12:58:26.510Z,4.30
2019-02-12T13:00:56.274Z,4.37
2019-02-12T13:03:24.851Z,3.87
2019-02-12T13:05:53.288Z,5.00
2019-02-12T13:08:21.774Z,3.77
2019-02-12T13:10:50.204Z,3.97
2019-02-12T13:13:18.628Z,3.00
2019-02-12T13:15:47.048Z,3.30
2019-02-12T13:18:15.487Z,2.63
2019-02-12T13:20:44.797Z,2.60
2019-02-12T13:23:13.216Z,3.67
2019-02-12T13:25:41.636Z,2.80
2019-02-12T13:28:10.106Z,3.07
2019-02-12T13:30:38.525Z,2.20
2019-02-12T13:33:06.975Z,3.73
2019-02-12T13:35:35.396Z,3.00
2019-02-12T13:38:03.917Z,2.83
2019-02-12T13:40:32.340Z,3.90
2019-02-12T13:43:00.768Z,2.07
2019-02-12T13:45:29.224Z,3.90
2019-02-12T13:47:57.728Z,3.30
2019-02-12T13:50:26.144Z,3.70
2019-02-12T13:52:54.873Z,2.97
2019-02-12T13:55:23.292Z,3.87
2019-02-12T13:57:52.649Z,3.50
2019-02-12T14:00:24.131Z,3.70
2019-02-12T14:02:52.565Z,3.60
2019-02-12T14:05:22.775Z,3.33
2019-02-12T14:07:53.504Z,3.40
2019-02-12T14:10:22.269Z,3.20
2019-02-12T14:12:50.916Z,3.47
2019-02-12T14:15:19.430Z,3.67
2019-02-12T14:17:47.861Z,4.20
2019-02-12T14:20:19.327Z,3.63
2019-02-12T14:22:49.883Z,3.60
2019-02-12T14:25:25.715Z,3.60
2019-02-12T14:27:52.590Z,2.17
2019-02-12T14:30:22.168Z,2.90
2019-02-12T14:32:50.590Z,2.97
2019-02-12T14:35:20.686Z,3.50
2019-02-12T14:37:50.648Z,3.40
2019-02-12T14:40:19.082Z,3.27
2019-02-12T14:42:47.513Z,2.77
2019-02-12T14:45:18.153Z,3.30
2019-02-12T14:47:49.159Z,2.90
2019-02-12T14:50:22.874Z,2.93
2019-02-12T14:52:53.033Z,3.17
2019-02-12T14:55:21.822Z,3.07
2019-02-12T14:57:52.778Z,2.70
2019-02-12T15:00:24.405Z,3.57
2019-02-12T15:02:52.812Z,3.50
2019-02-12T15:05:22.943Z,2.80
2019-02-12T15:07:51.735Z,2.67
2019-02-12T15:10:20.167Z,2.83
2019-02-12T15:12:48.581Z,2.50
2019-02-12T15:15:17.084Z,2.80
2019-02-12T15:17:45.508Z,2.70
2019-02-12T15:20:13.999Z,3.03
2019-02-12T15:22:42.784Z,2.57
2019-02-12T15:25:12.183Z,1.83
2019-02-12T15:27:40.885Z,2.13
2019-02-12T15:30:18.404Z,2.30
2019-02-12T15:32:48.708Z,3.00
2019-02-12T15:35:17.151Z,2.63
2019-02-12T15:37:45.564Z,2.30
2019-02-12T15:40:20.616Z,2.07
2019-02-12T15:42:49.036Z,2.57
2019-02-12T15:45:21.572Z,2.77
2019-02-12T15:47:49.989Z,3.13
2019-02-12T15:50:20.649Z,2.67
2019-02-12T15:52:49.050Z,2.63
2019-02-12T15:55:18.871Z,2.60
2019-02-12T15:57:48.649Z,3.07
2019-02-12T16:00:20.649Z,2.03
2019-02-12T16:02:50.891Z,2.63
2019-02-12T16:05:19.323Z,2.73
2019-02-12T16:07:47.875Z,4.00
2019-02-12T16:10:20.065Z,5.10
2019-02-12T16:12:49.472Z,5.07
2019-02-12T16:15:21.899Z,6.20
2019-02-12T16:17:49.588Z,6.17
2019-02-12T16:20:18.006Z,8.93
2019-02-12T16:22:48.327Z,7.47
2019-02-12T16:25:18.960Z,7.77
2019-02-12T16:27:48.542Z,8.43
2019-02-12T16:30:22.271Z,6.83
2019-02-12T16:32:50.700Z,7.77
2019-02-12T16:35:20.268Z,6.83
2019-02-12T16:37:48.827Z,7.23
2019-02-12T16:40:18.232Z,6.57
2019-02-12T16:42:46.931Z,6.40
2019-02-12T16:45:23.775Z,6.37
2019-02-12T16:47:52.212Z,6.60
2019-02-12T16:50:20.636Z,5.90
2019-02-12T16:52:49.063Z,5.70
2019-02-12T16:55:17.548Z,5.47
2019-02-12T16:57:45.979Z,6.20
2019-02-12T17:00:18.984Z,6.20
2019-02-12T17:02:48.716Z,5.43
2019-02-12T17:05:19.203Z,6.27
2019-02-12T17:07:47.635Z,6.27
2019-02-12T17:10:16.362Z,5.87
2019-02-12T17:12:45.215Z,5.83
2019-02-12T17:15:15.307Z,6.10
2019-02-12T17:17:43.757Z,5.83
2019-02-12T17:20:17.324Z,5.40
2019-02-12T17:22:45.739Z,6.33
2019-02-12T17:25:14.601Z,6.53
2019-02-12T17:27:43.055Z,6.10
2019-02-12T17:30:15.139Z,6.57
2019-02-12T17:32:43.597Z,5.97
2019-02-12T17:35:12.087Z,6.10
2019-02-12T17:37:40.549Z,6.03
2019-02-12T17:40:14.216Z,6.70
2019-02-12T17:42:42.709Z,5.83
2019-02-12T17:45:20.815Z,5.90
2019-02-12T17:47:51.893Z,6.00
2019-02-12T17:50:20.298Z,5.67
2019-02-12T17:52:49.875Z,5.83
2019-02-12T17:55:18.343Z,5.73
2019-02-12T17:57:48.260Z,5.97
2019-02-12T18:00:32.723Z,5.57
2019-02-12T18:03:01.159Z,5.93
2019-02-12T18:05:30.007Z,5.07
2019-02-12T18:07:58.510Z,7.00
2019-02-12T18:10:26.936Z,5.00
2019-02-12T18:12:55.684Z,5.20
2019-02-12T18:15:24.167Z,5.60
2019-02-12T18:17:52.658Z,5.60
2019-02-12T18:20:26.345Z,5.57
2019-02-12T18:22:52.440Z,9.30
2019-02-12T18:25:20.837Z,9.10
2019-02-12T18:27:49.275Z,6.87
2019-02-12T18:30:20.410Z,6.70
2019-02-12T18:32:49.527Z,5.30
2019-02-12T18:35:17.992Z,5.17
2019-02-12T18:37:46.426Z,5.17
2019-02-12T18:40:16.118Z,6.20
2019-02-12T18:42:44.544Z,5.77
2019-02-12T18:45:21.635Z,6.13
2019-02-12T18:47:50.051Z,6.13
2019-02-12T18:50:18.529Z,6.10
2019-02-12T18:52:46.932Z,5.20
2019-02-12T18:55:16.305Z,5.90
2019-02-12T18:57:44.720Z,5.80
2019-02-12T19:00:17.985Z,6.27
2019-02-12T19:02:47.105Z,5.50
2019-02-12T19:05:15.590Z,4.60
2019-02-12T19:07:46.730Z,5.10
2019-02-12T19:10:17.202Z,5.43
2019-02-12T19:12:47.039Z,4.23
2019-02-12T19:15:18.188Z,4.37
2019-02-12T19:17:52.789Z,4.20
2019-02-12T19:20:21.832Z,4.60
2019-02-12T19:22:53.201Z,4.90
2019-02-12T19:25:23.512Z,4.57
2019-02-12T19:27:52.169Z,4.33
2019-02-12T19:30:20.574Z,5.67
2019-02-12T19:32:51.461Z,5.30
2019-02-12T19:35:19.977Z,5.40
2019-02-12T19:37:48.391Z,5.10
2019-02-12T19:40:16.840Z,5.00
2019-02-12T19:42:49.736Z,5.30
2019-02-12T19:45:18.553Z,6.20
2019-02-12T19:47:47.057Z,5.67
2019-02-12T19:50:15.742Z,4.80
2019-02-12T19:52:44.235Z,6.30
2019-02-12T19:55:13.077Z,5.23
2019-02-12T19:57:41.509Z,6.93
2019-02-12T20:00:19.922Z,6.40
2019-02-12T20:02:49.527Z,5.87
2019-02-12T20:05:18.031Z,6.47
2019-02-12T20:07:50.580Z,5.77
2019-02-12T20:10:19.292Z,6.80
2019-02-12T20:12:47.711Z,6.47
2019-02-12T20:15:22.565Z,6.20
2019-02-12T20:17:50.981Z,6.77
2019-02-12T20:20:19.433Z,5.90
2019-02-12T20:22:47.864Z,6.40
2019-02-12T20:25:16.333Z,6.40
2019-02-12T20:27:44.736Z,7.23
2019-02-12T20:30:19.682Z,7.90
2019-02-12T20:32:48.113Z,6.87
2019-02-12T20:35:23.941Z,6.67
2019-02-12T20:37:52.367Z,7.20
2019-02-12T20:40:21.007Z,7.10
2019-02-12T20:42:49.428Z,6.67
2019-02-12T20:45:19.522Z,6.70
2019-02-12T20:47:48.093Z,6.10
2019-02-12T20:50:18.745Z,6.17
2019-02-12T20:52:47.181Z,6.90
2019-02-12T20:55:15.942Z,7.17
2019-02-12T20:57:44.356Z,7.23
2019-02-12T21:00:24.954Z,7.67
2019-02-12T21:02:53.374Z,7.53
2019-02-12T21:05:23.813Z,7.63
2019-02-12T21:07:52.232Z,7.47
2019-02-12T21:10:24.373Z,11.10
2019-02-12T21:12:52.891Z,29.00
2019-02-12T21:15:24.382Z,9.17
2019-02-12T21:17:53.827Z,7.90
2019-02-12T21:20:23.257Z,10.70
2019-02-12T21:22:51.704Z,11.07
2019-02-12T21:25:20.160Z,16.73
2019-02-12T21:27:48.593Z,16.97
2019-02-12T21:30:27.708Z,17.20
2019-02-12T21:32:56.158Z,15.03
2019-02-12T21:35:24.583Z,10.13
2019-02-12T21:37:54.596Z,10.87
2019-02-12T21:40:25.437Z,12.97
2019-02-12T21:42:53.891Z,13.83
2019-02-12T21:45:22.569Z,16.40
2019-02-12T21:47:51.032Z,14.77
2019-02-12T21:50:19.455Z,14.07
2019-02-12T21:52:49.384Z,12.80
2019-02-12T21:55:23.191Z,11.33
2019-02-12T21:57:53.385Z,10.77
2019-02-12T22:00:24.879Z,12.60
2019-02-12T22:02:54.822Z,11.27
2019-02-12T22:05:23.258Z,11.93
2019-02-12T22:07:55.754Z,11.17
2019-02-12T22:10:35.698Z,11.33
2019-02-12T22:13:04.465Z,11.40
2019-02-12T22:15:32.912Z,11.67
2019-02-12T22:18:04.586Z,11.53
2019-02-12T22:20:33.844Z,11.77
2019-02-12T22:23:02.318Z,11.73
2019-02-12T22:25:30.834Z,13.13
2019-02-12T22:27:59.292Z,13.23
2019-02-12T22:30:27.745Z,13.30
2019-02-12T22:32:56.209Z,13.20
2019-02-12T22:35:24.635Z,12.07
2019-02-12T22:37:53.070Z,13.00
2019-02-12T22:40:21.531Z,12.93
2019-02-12T22:42:51.040Z,13.57
2019-02-12T22:45:23.534Z,11.50
2019-02-12T22:47:53.113Z,13.10
2019-02-12T22:50:21.565Z,10.87
2019-02-12T22:52:50.063Z,12.43
2019-02-12T22:55:20.489Z,11.37
2019-02-12T22:57:49.765Z,10.80
2019-02-12T23:00:47.288Z,11.33
2019-02-12T23:03:15.765Z,11.60
2019-02-12T23:05:44.184Z,10.57
2019-02-12T23:08:15.224Z,10.87
2019-02-12T23:10:43.642Z,10.37
2019-02-12T23:13:12.106Z,10.30
2019-02-12T23:15:40.570Z,9.63
2019-02-12T23:18:11.015Z,11.73
2019-02-12T23:20:39.813Z,9.97
2019-02-12T23:23:10.991Z,10.53
2019-02-12T23:25:39.423Z,10.07
2019-02-12T23:28:07.870Z,9.30
2019-02-12T23:30:36.299Z,9.53
2019-02-12T23:33:04.803Z,10.00
2019-02-12T23:35:33.233Z,10.30
2019-02-12T23:38:01.696Z,10.57
2019-02-12T23:40:30.198Z,10.23
2019-02-12T23:42:58.656Z,9.47
2019-02-12T23:45:27.075Z,9.63
2019-02-12T23:47:59.019Z,9.07
2019-02-12T23:50:27.445Z,9.80
2019-02-12T23:52:55.905Z,10.63
2019-02-12T23:55:24.331Z,10.87
2019-02-12T23:57:52.947Z,10.47
